Time;durP1;ratioP1;P1;durP2;ratioP2;P2;SDS_P1;SDS_P2;PMS_P1;PMS_P2;Temp;Humidity;BMP_temperature;BMP_pressure;BME280_temperature;BME280_humidity;BME280_pressure;Samples;Min_cycle;Max_cycle;Signal;HPM_P1;HPM_P2
2023/12/05 00:00:45;;;;;;;10.55;8.93;;;7.90;66.90;9.80;99731.00;;;;5029355;28;20200;-77
2023/12/05 00:03:14;;;;;;;10.52;8.57;;;7.90;66.90;9.80;99731.00;;;;5028879;28;20184;-77
2023/12/05 00:05:41;;;;;;;9.43;8.27;;;7.90;67.00;9.80;99725.00;;;;5026025;28;20200;-77
2023/12/05 00:08:08;;;;;;;10.40;8.45;;;7.90;66.90;9.80;99732.00;;;;5032644;28;20684;-78
2023/12/05 00:10:35;;;;;;;11.23;8.15;;;7.90;66.90;9.80;99733.00;;;;5029798;28;20203;-77
2023/12/05 00:13:03;;;;;;;11.57;8.15;;;7.90;66.90;9.80;99725.00;;;;5026991;28;20192;-77
2023/12/05 00:15:30;;;;;;;9.98;7.68;;;7.90;66.90;9.80;99734.00;;;;5024690;28;20192;-77
2023/12/05 00:17:57;;;;;;;9.13;7.88;;;7.90;67.00;9.80;99729.00;;;;5029840;28;20223;-77
2023/12/05 00:20:26;;;;;;;10.57;8.45;;;7.90;67.00;9.80;99726.00;;;;5028140;28;20196;-77
2023/12/05 00:22:53;;;;;;;9.75;8.50;;;7.90;67.00;9.80;99725.00;;;;5029297;28;20196;-77
2023/12/05 00:25:20;;;;;;;10.45;8.35;;;8.00;67.00;9.80;99732.00;;;;5028886;28;20230;-77
2023/12/05 00:27:47;;;;;;;8.32;7.47;;;8.00;67.00;9.80;99721.00;;;;5030069;28;20188;-77
2023/12/05 00:30:14;;;;;;;9.18;8.05;;;8.00;67.00;9.90;99728.00;;;;5027441;28;20203;-77
2023/12/05 00:32:41;;;;;;;11.38;7.90;;;8.00;67.00;9.80;99721.00;;;;5030297;28;20567;-77
2023/12/05 00:35:09;;;;;;;11.13;9.15;;;8.00;67.00;9.90;99706.00;;;;5029645;28;20204;-77
2023/12/05 00:37:37;;;;;;;11.05;8.50;;;8.00;67.00;9.90;99710.00;;;;5028584;28;20307;-77
2023/12/05 00:40:05;;;;;;;9.35;8.00;;;8.00;67.00;9.90;99711.00;;;;5028196;28;20550;-77
2023/12/05 00:42:32;;;;;;;9.60;7.88;;;8.00;66.90;9.90;99707.00;;;;5027510;28;20228;-77
2023/12/05 00:44:59;;;;;;;10.50;8.63;;;8.00;66.90;9.90;99705.00;;;;5031382;28;20188;-77
2023/12/05 00:47:26;;;;;;;9.63;7.93;;;8.00;66.80;9.90;99706.00;;;;5027267;28;20202;-77
2023/12/05 00:49:53;;;;;;;11.05;8.98;;;8.00;66.90;9.80;99704.00;;;;5030636;28;20188;-77
2023/12/05 00:52:20;;;;;;;12.18;9.27;;;8.00;66.80;9.90;99701.00;;;;5030650;28;20203;-77
2023/12/05 00:54:49;;;;;;;10.63;8.60;;;8.00;66.90;9.90;99703.00;;;;5030732;28;20250;-77
2023/12/05 00:57:16;;;;;;;11.27;9.60;;;8.00;66.80;9.90;99695.00;;;;5026114;28;20223;-77
2023/12/05 00:59:43;;;;;;;11.15;8.85;;;8.00;66.80;9.90;99697.00;;;;5029131;28;20657;-77
2023/12/05 01:02:10;;;;;;;10.93;9.05;;;8.10;67.00;9.90;99696.00;;;;5026114;28;20207;-77
2023/12/05 01:04:37;;;;;;;9.70;8.68;;;8.00;66.90;9.90;99697.00;;;;5020748;28;20204;-77
2023/12/05 01:07:05;;;;;;;9.55;8.35;;;8.00;66.80;9.90;99701.00;;;;5023985;28;20197;-77
2023/12/05 01:09:32;;;;;;;11.43;8.85;;;8.00;66.90;9.90;99692.00;;;;5022547;28;20201;-77
2023/12/05 01:12:00;;;;;;;11.18;8.85;;;8.00;66.90;9.90;99687.00;;;;5026201;28;20820;-78
2023/12/05 01:14:27;;;;;;;11.75;9.80;;;8.10;67.00;9.90;99699.00;;;;5023923;28;20196;-78
2023/12/05 01:16:54;;;;;;;11.05;9.18;;;8.10;67.00;9.90;99704.00;;;;5027900;28;20680;-77
2023/12/05 01:19:21;;;;;;;10.38;8.70;;;8.10;66.90;9.90;99709.00;;;;5023063;28;20299;-77
2023/12/05 01:21:48;;;;;;;11.75;9.48;;;8.10;66.90;9.90;99710.00;;;;5030418;28;20623;-77
2023/12/05 01:24:15;;;;;;;10.60;8.98;;;8.10;66.90;9.90;99705.00;;;;5028142;28;20315;-77
2023/12/05 01:26:42;;;;;;;11.65;9.48;;;8.10;66.90;9.90;99708.00;;;;5028857;28;20206;-77
2023/12/05 01:29:11;;;;;;;12.32;9.93;;;8.10;66.90;9.90;99705.00;;;;5028449;28;20201;-77
2023/12/05 01:31:38;;;;;;;11.85;9.85;;;8.10;66.90;9.90;99707.00;;;;5030803;28;20192;-77
2023/12/05 01:34:05;;;;;;;9.50;8.32;;;8.10;66.90;9.90;99701.00;;;;5026845;28;20636;-77
2023/12/05 01:36:31;;;;;;;10.85;8.85;;;8.10;66.80;9.90;99703.00;;;;5033398;28;20193;-77
2023/12/05 01:38:59;;;;;;;12.98;10.32;;;8.10;66.80;9.90;99703.00;;;;5031316;28;20220;-78
2023/12/05 01:41:25;;;;;;;10.77;9.18;;;8.10;66.90;9.90;99701.00;;;;5032194;28;20189;-77
2023/12/05 01:43:52;;;;;;;11.52;9.30;;;8.10;66.90;9.90;99708.00;;;;5023883;28;20199;-78
2023/12/05 01:46:22;;;;;;;10.77;9.00;;;8.10;66.80;9.90;99704.00;;;;5026790;28;20276;-78
2023/12/05 01:48:49;;;;;;;10.25;8.60;;;8.10;66.80;9.90;99705.00;;;;5033913;28;20196;-78
2023/12/05 01:51:17;;;;;;;11.65;9.02;;;8.10;66.80;9.90;99705.00;;;;5032168;28;20195;-77
2023/12/05 01:53:45;;;;;;;10.65;8.85;;;8.00;67.40;9.90;99699.00;;;;5026490;28;20680;-77
2023/12/05 01:56:14;;;;;;;11.07;9.07;;;8.00;66.80;9.90;99716.00;;;;5028602;28;20627;-77
2023/12/05 01:58:41;;;;;;;11.13;8.65;;;8.00;66.70;9.90;99710.00;;;;5030920;28;20228;-77
2023/12/05 02:01:15;;;;;;;11.18;9.57;;;8.00;66.70;9.80;99715.00;;;;5029631;28;20192;-77
2023/12/05 02:03:45;;;;;;;11.13;9.27;;;8.00;66.80;9.80;99709.00;;;;5033072;28;20204;-77
2023/12/05 02:06:13;;;;;;;10.52;8.57;;;8.00;66.80;9.80;99710.00;;;;5033596;28;20188;-77
2023/12/05 02:08:42;;;;;;;12.63;10.02;;;8.00;66.70;9.80;99711.00;;;;5030212;28;20208;-77
2023/12/05 02:11:09;;;;;;;11.65;9.50;;;8.00;66.70;9.80;99716.00;;;;5031428;28;20219;-77
2023/12/05 02:13:36;;;;;;;14.02;10.10;;;7.90;66.70;9.80;99708.00;;;;5033111;28;20201;-78
2023/12/05 02:16:27;;;;;;;11.68;9.43;;;7.90;66.80;9.70;99708.00;;;;5028687;28;20216;-77
2023/12/05 02:19:19;;;;;;;11.52;9.02;;;7.90;66.90;9.70;99710.00;;;;5022639;28;20255;-77
2023/12/05 02:21:50;;;;;;;12.00;8.82;;;7.90;66.80;9.70;99711.00;;;;5022977;28;21216;-77
2023/12/05 02:24:29;;;;;;;11.43;9.18;;;7.90;66.80;9.70;99714.00;;;;5031759;28;20228;-77
2023/12/05 02:27:13;;;;;;;11.80;9.38;;;7.90;66.90;9.60;99716.00;;;;5032804;28;20196;-77
2023/12/05 02:29:49;;;;;;;11.18;9.07;;;7.90;66.90;9.60;99718.00;;;;5023462;28;20193;-77
2023/12/05 02:32:16;;;;;;;10.73;8.60;;;7.90;66.90;9.70;99714.00;;;;5031875;28;20680;-78
2023/12/05 02:34:43;;;;;;;11.27;9.10;;;7.90;66.90;9.70;99718.00;;;;5032790;28;20203;-77
2023/12/05 02:37:19;;;;;;;11.00;8.60;;;7.90;67.00;9.70;99721.00;;;;5032273;28;20258;-77
2023/12/05 02:40:10;;;;;;;10.98;9.00;;;7.90;67.00;9.60;99724.00;;;;5028037;28;20584;-77
2023/12/05 02:42:39;;;;;;;10.98;9.07;;;7.90;67.10;9.70;99720.00;;;;5027884;28;20192;-76
2023/12/05 02:45:17;;;;;;;11.10;8.77;;;7.90;67.00;9.60;99717.00;;;;5030165;28;20235;-77
2023/12/05 02:47:48;;;;;;;9.55;8.30;;;7.90;67.10;9.70;99717.00;;;;5032128;28;20572;-77
2023/12/05 02:50:17;;;;;;;11.02;8.50;;;7.90;67.10;9.70;99712.00;;;;5027591;28;20193;-77
2023/12/05 02:52:44;;;;;;;11.20;8.90;;;7.90;67.10;9.70;99710.00;;;;5032343;28;20196;-77
2023/12/05 02:55:11;;;;;;;10.93;8.80;;;7.90;67.10;9.70;99704.00;;;;5031359;28;20557;-77
2023/12/05 02:57:38;;;;;;;10.32;8.35;;;7.90;67.10;9.70;99704.00;;;;5031127;28;20302;-77
2023/12/05 03:00:08;;;;;;;11.15;8.73;;;7.90;67.00;9.70;99702.00;;;;5025198;28;20212;-78
2023/12/05 03:02:36;;;;;;;10.98;8.30;;;7.90;67.00;9.70;99711.00;;;;5029486;28;20219;-77
2023/12/05 03:05:04;;;;;;;11.80;9.15;;;7.90;67.00;9.70;99706.00;;;;5032263;28;20383;-77
2023/12/05 03:07:31;;;;;;;10.75;8.32;;;7.90;67.00;9.70;99714.00;;;;5031857;28;20684;-77
2023/12/05 03:09:58;;;;;;;9.38;7.88;;;7.90;66.90;9.70;99705.00;;;;5029035;28;20193;-77
2023/12/05 03:12:25;;;;;;;9.38;7.72;;;7.90;66.80;9.70;99711.00;;;;5031610;28;20192;-77
2023/12/05 03:14:52;;;;;;;10.35;8.18;;;7.90;66.80;9.70;99705.00;;;;5030622;28;20203;-78
2023/12/05 03:17:20;;;;;;;9.52;7.85;;;7.80;66.70;9.60;99713.00;;;;5030854;28;20662;-77
2023/12/05 03:19:47;;;;;;;10.02;8.38;;;7.80;66.80;9.60;99709.00;;;;5028758;28;20220;-76
2023/12/05 03:22:14;;;;;;;10.73;8.13;;;7.80;66.80;9.60;99702.00;;;;5031193;28;20188;-76
2023/12/05 03:24:41;;;;;;;9.35;7.45;;;7.80;66.80;9.60;99703.00;;;;5028075;28;20230;-74
2023/12/05 03:27:08;;;;;;;9.07;7.60;;;7.80;66.80;9.60;99705.00;;;;5031609;28;20196;-74
2023/12/05 03:29:35;;;;;;;10.73;8.27;;;7.80;66.80;9.60;99701.00;;;;5030016;28;20207;-73
2023/12/05 03:32:03;;;;;;;9.80;7.55;;;7.80;66.80;9.50;99706.00;;;;5029824;28;20201;-77
2023/12/05 03:34:31;;;;;;;9.27;7.53;;;7.70;66.60;9.50;99707.00;;;;5029507;28;20295;-77
2023/12/05 03:36:58;;;;;;;10.23;8.00;;;7.70;66.60;9.50;99700.00;;;;5027062;28;20220;-78
2023/12/05 03:39:25;;;;;;;10.90;8.40;;;7.70;66.60;9.50;99706.00;;;;5023281;28;20227;-77
2023/12/05 03:41:52;;;;;;;11.52;8.52;;;7.70;66.60;9.40;99701.00;;;;5029608;28;20203;-77
2023/12/05 03:44:19;;;;;;;12.15;7.85;;;7.70;66.60;9.40;99699.00;;;;5030391;28;20197;-77
2023/12/05 03:46:46;;;;;;;9.80;7.82;;;7.70;66.60;9.40;99694.00;;;;5030684;28;20230;-77
2023/12/05 03:49:13;;;;;;;11.15;8.77;;;7.60;66.70;9.40;99699.00;;;;5029352;28;20200;-77
2023/12/05 03:51:41;;;;;;;10.40;8.45;;;7.60;66.80;9.30;99698.00;;;;5030279;28;20580;-76
2023/12/05 03:54:08;;;;;;;10.35;8.00;;;7.60;66.80;9.40;99701.00;;;;5025932;28;20199;-76
2023/12/05 03:56:35;;;;;;;11.50;8.85;;;7.60;66.80;9.40;99705.00;;;;5028589;28;20227;-77
2023/12/05 03:59:02;;;;;;;11.00;8.80;;;7.60;66.80;9.40;99709.00;;;;5019474;28;20227;-77
2023/12/05 04:01:30;;;;;;;11.43;8.57;;;7.50;66.80;9.40;99712.00;;;;5026817;28;20840;-78
2023/12/05 04:03:57;;;;;;;10.32;7.78;;;7.50;66.80;9.30;99706.00;;;;5028426;28;20207;-77
2023/12/05 04:06:24;;;;;;;11.13;8.50;;;7.50;66.80;9.30;99707.00;;;;5028909;28;20200;-77
2023/12/05 04:08:53;;;;;;;10.52;8.40;;;7.50;66.80;9.30;99711.00;;;;5030629;28;20222;-78
2023/12/05 04:11:30;;;;;;;12.00;9.13;;;7.50;66.80;9.20;99718.00;;;;5021999;28;20193;-77
2023/12/05 04:13:57;;;;;;;10.27;8.05;;;7.50;66.80;9.30;99717.00;;;;5028173;28;20297;-77
2023/12/05 04:16:24;;;;;;;12.95;8.32;;;7.50;67.50;9.30;99720.00;;;;5029625;28;20219;-77
2023/12/05 04:18:52;;;;;;;11.60;8.63;;;7.50;66.80;9.30;99721.00;;;;5030376;28;20230;-77
2023/12/05 04:21:20;;;;;;;11.90;8.77;;;7.50;66.90;9.20;99719.00;;;;5029140;28;20625;-77
2023/12/05 04:23:47;;;;;;;11.82;8.63;;;7.40;66.80;9.20;99731.00;;;;5027770;28;20220;-77
2023/12/05 04:26:18;;;;;;;12.73;9.52;;;7.40;66.90;9.20;99726.00;;;;5029138;28;20192;-77
2023/12/05 04:28:46;;;;;;;12.57;9.68;;;7.40;66.80;9.20;99727.00;;;;5024855;28;20200;-77
2023/12/05 04:31:13;;;;;;;13.88;10.23;;;7.40;66.90;9.20;99725.00;;;;5031734;28;20661;-77
2023/12/05 04:33:41;;;;;;;11.57;8.90;;;7.40;66.90;9.20;99727.00;;;;5030790;28;20188;-77
2023/12/05 04:36:10;;;;;;;11.35;8.50;;;7.40;67.00;9.20;99731.00;;;;5019513;28;20716;-78
2023/12/05 04:38:38;;;;;;;12.73;9.48;;;7.40;67.00;9.20;99734.00;;;;5020377;28;20227;-77
2023/12/05 04:41:06;;;;;;;13.27;9.45;;;7.40;67.10;9.20;99721.00;;;;5020009;28;20551;-77
2023/12/05 04:43:34;;;;;;;12.85;9.60;;;7.40;67.00;9.20;99736.00;;;;5027800;28;20289;-77
2023/12/05 04:46:01;;;;;;;13.15;9.55;;;7.40;66.90;9.10;99732.00;;;;5030422;28;20196;-77
2023/12/05 04:48:29;;;;;;;14.55;9.98;;;7.40;67.00;9.10;99735.00;;;;5031178;28;20184;-77
2023/12/05 04:50:56;;;;;;;10.73;8.63;;;7.40;67.00;9.10;99735.00;;;;5025793;28;20606;-77
2023/12/05 04:53:23;;;;;;;14.40;10.10;;;7.30;66.90;9.10;99735.00;;;;5029927;28;20562;-77
2023/12/05 04:55:50;;;;;;;13.88;9.57;;;7.30;66.90;9.00;99740.00;;;;5030592;28;20303;-77
2023/12/05 04:58:17;;;;;;;14.98;11.05;;;7.30;66.90;9.00;99740.00;;;;5029910;28;20196;-78
2023/12/05 05:00:45;;;;;;;12.98;9.20;;;7.30;67.00;9.00;99740.00;;;;5026743;28;20578;-77
2023/12/05 05:03:13;;;;;;;13.05;9.40;;;7.30;67.10;9.00;99747.00;;;;5029385;28;20646;-77
2023/12/05 05:05:40;;;;;;;13.13;9.68;;;7.20;67.00;9.00;99746.00;;;;5029348;28;20542;-77
2023/12/05 05:08:07;;;;;;;14.65;10.10;;;7.20;67.00;9.00;99751.00;;;;5032783;28;20196;-77
2023/12/05 05:10:34;;;;;;;14.13;9.68;;;7.20;67.00;9.00;99754.00;;;;5032040;28;20207;-78
2023/12/05 05:13:01;;;;;;;13.88;9.57;;;7.20;67.70;9.00;99752.00;;;;5032142;28;20199;-77
2023/12/05 05:15:28;;;;;;;12.55;8.93;;;7.20;67.20;9.00;99756.00;;;;5033601;28;20283;-77
2023/12/05 05:17:56;;;;;;;12.80;9.38;;;7.20;67.20;9.00;99757.00;;;;5033975;28;20196;-77
2023/12/05 05:20:23;;;;;;;12.60;8.85;;;7.20;67.20;9.00;99769.00;;;;5027564;28;20212;-77
2023/12/05 05:22:50;;;;;;;15.18;9.77;;;7.20;67.20;9.00;99767.00;;;;5033793;28;20657;-77
2023/12/05 05:25:18;;;;;;;12.90;9.13;;;7.20;67.20;9.00;99767.00;;;;5031964;28;20224;-77
2023/12/05 05:27:45;;;;;;;14.70;9.85;;;7.20;67.20;9.00;99768.00;;;;5033598;28;20549;-77
2023/12/05 05:30:13;;;;;;;14.95;9.82;;;7.20;67.20;9.00;99767.00;;;;5036175;28;20200;-77
2023/12/05 05:32:40;;;;;;;14.30;10.05;;;7.20;67.20;9.00;99772.00;;;;5032761;28;20196;-77
2023/12/05 05:35:09;;;;;;;11.95;9.02;;;7.20;67.20;9.00;99764.00;;;;5026138;28;20205;-77
2023/12/05 05:37:36;;;;;;;13.48;9.00;;;7.20;67.30;9.00;99775.00;;;;5030262;28;20197;-77
2023/12/05 05:40:06;;;;;;;12.25;9.45;;;7.20;67.20;9.00;99769.00;;;;5027931;28;20705;-77
2023/12/05 05:42:33;;;;;;;16.17;10.48;;;7.20;67.20;9.00;99769.00;;;;5021757;28;20200;-77
2023/12/05 05:45:00;;;;;;;13.55;9.70;;;7.20;67.20;9.00;99770.00;;;;5030385;28;20200;-77
2023/12/05 05:47:28;;;;;;;12.88;8.68;;;7.20;67.30;9.00;99771.00;;;;5026988;28;20197;-78
2023/12/05 05:49:57;;;;;;;14.00;9.65;;;7.20;67.20;9.00;99770.00;;;;5030529;28;20276;-78
2023/12/05 05:52:25;;;;;;;13.15;9.13;;;7.20;67.10;9.00;99781.00;;;;5029712;28;20239;-77
2023/12/05 05:54:52;;;;;;;12.75;8.95;;;7.20;67.10;8.90;99784.00;;;;5033680;28;20195;-77
2023/12/05 05:57:19;;;;;;;13.48;9.88;;;7.20;67.20;9.00;99780.00;;;;5032877;28;20222;-77
2023/12/05 05:59:46;;;;;;;13.65;9.30;;;7.20;67.20;9.00;99784.00;;;;5032959;28;20564;-77
2023/12/05 06:02:13;;;;;;;11.55;8.88;;;7.20;67.20;8.90;99786.00;;;;5032588;28;20196;-77
2023/12/05 06:04:41;;;;;;;12.45;9.10;;;7.10;67.20;9.00;99775.00;;;;5032472;28;20218;-77
2023/12/05 06:07:08;;;;;;;13.50;9.32;;;7.20;67.30;8.90;99788.00;;;;5031557;28;20550;-77
2023/12/05 06:09:37;;;;;;;12.77;8.98;;;7.10;67.20;8.90;99778.00;;;;5033026;28;20214;-77
2023/12/05 06:12:07;;;;;;;13.93;9.52;;;7.10;67.30;8.90;99781.00;;;;5032264;28;20203;-78
2023/12/05 06:14:34;;;;;;;13.98;9.00;;;7.10;67.20;8.90;99788.00;;;;5032026;28;20200;-77
2023/12/05 06:17:02;;;;;;;13.80;9.75;;;7.10;67.20;8.90;99792.00;;;;5033303;28;20708;-78
2023/12/05 06:19:29;;;;;;;12.07;8.80;;;7.10;67.20;8.90;99792.00;;;;5030842;28;20216;-77
2023/12/05 06:21:56;;;;;;;15.95;10.85;;;7.10;67.20;8.90;99791.00;;;;5027369;28;20232;-78
2023/12/05 06:24:23;;;;;;;14.02;10.20;;;7.10;67.30;8.90;99791.00;;;;5025335;28;20224;-77
2023/12/05 06:26:52;;;;;;;15.10;10.25;;;7.10;67.30;8.90;99790.00;;;;5029204;28;20203;-77
2023/12/05 06:29:19;;;;;;;14.95;9.82;;;7.10;67.30;8.90;99795.00;;;;5032975;28;20582;-77
2023/12/05 06:31:46;;;;;;;18.85;9.70;;;7.10;67.40;8.90;99796.00;;;;5030258;28;20196;-77
2023/12/05 06:34:14;;;;;;;13.45;9.60;;;7.10;67.30;8.90;99804.00;;;;5028759;28;20193;-78
2023/12/05 06:36:41;;;;;;;13.32;9.63;;;7.10;67.40;8.90;99799.00;;;;5026779;28;20955;-76
2023/12/05 06:39:09;;;;;;;15.45;9.88;;;7.10;67.30;8.90;99802.00;;;;5021975;28;20196;-76
2023/12/05 06:41:36;;;;;;;17.15;10.20;;;7.10;67.40;8.90;99805.00;;;;5022056;28;20196;-77
2023/12/05 06:44:05;;;;;;;13.10;9.82;;;7.10;67.40;8.90;99799.00;;;;5022906;28;20496;-78
2023/12/05 06:46:32;;;;;;;13.93;10.00;;;7.10;67.40;8.90;99810.00;;;;5026135;28;20220;-79
2023/12/05 06:48:59;;;;;;;13.73;9.20;;;7.10;67.50;8.90;99798.00;;;;5028884;28;20200;-77
2023/12/05 06:51:25;;;;;;;12.75;9.50;;;7.10;67.40;8.90;99809.00;;;;5030710;28;20283;-78
2023/12/05 06:53:52;;;;;;;14.75;9.77;;;7.10;67.40;8.90;99817.00;;;;5029403;28;20207;-78
2023/12/05 06:56:21;;;;;;;12.88;8.95;;;7.10;67.40;8.90;99811.00;;;;5031865;28;20327;-78
2023/12/05 06:58:48;;;;;;;13.65;9.90;;;7.10;67.40;8.90;99827.00;;;;5025891;28;20196;-78
2023/12/05 07:01:17;;;;;;;13.02;9.52;;;7.10;67.40;8.90;99825.00;;;;5020024;28;20243;-76
2023/12/05 07:03:44;;;;;;;14.45;9.93;;;7.10;67.40;8.90;99828.00;;;;5023959;28;20232;-76
2023/12/05 07:06:11;;;;;;;13.07;9.85;;;7.10;67.40;8.90;99837.00;;;;5029367;28;20271;-75
2023/12/05 07:08:39;;;;;;;14.88;10.13;;;7.10;67.50;8.90;99837.00;;;;5031376;28;20197;-75
2023/12/05 07:11:06;;;;;;;22.00;15.30;;;7.10;67.40;8.90;99837.00;;;;5030586;28;20204;-75
2023/12/05 07:13:33;;;;;;;17.33;12.10;;;7.10;67.40;8.90;99846.00;;;;5029928;28;20208;-75
2023/12/05 07:16:00;;;;;;;14.60;9.77;;;7.10;67.40;8.90;99851.00;;;;5020049;28;20197;-77
2023/12/05 07:18:28;;;;;;;15.75;9.90;;;7.10;67.40;8.90;99856.00;;;;5026521;28;20199;-77
2023/12/05 07:20:55;;;;;;;13.00;9.38;;;7.10;67.40;8.90;99855.00;;;;5030411;28;20224;-76
2023/12/05 07:23:22;;;;;;;15.90;9.68;;;7.10;67.40;8.90;99867.00;;;;5030813;28;20202;-75
2023/12/05 07:25:51;;;;;;;14.52;9.40;;;7.10;67.40;8.90;99875.00;;;;5030065;28;20219;-77
2023/12/05 07:28:18;;;;;;;14.65;9.18;;;7.10;67.40;8.90;99877.00;;;;5031444;28;20189;-75
2023/12/05 07:30:45;;;;;;;13.18;9.55;;;7.10;67.40;8.90;99887.00;;;;5030878;28;20303;-75
2023/12/05 07:33:12;;;;;;;14.45;9.77;;;7.10;67.40;8.90;99880.00;;;;5031697;28;20579;-76
2023/12/05 07:35:40;;;;;;;13.63;9.70;;;7.10;67.50;8.90;99883.00;;;;5026622;28;20356;-75
2023/12/05 07:38:07;;;;;;;13.90;9.18;;;7.10;67.60;9.00;99888.00;;;;5031013;28;20200;-75
2023/12/05 07:40:34;;;;;;;13.68;9.27;;;7.10;67.60;8.90;99891.00;;;;5031294;28;20224;-77
2023/12/05 07:43:01;;;;;;;12.27;8.70;;;7.10;67.70;8.90;99892.00;;;;5030879;28;20207;-76
2023/12/05 07:45:28;;;;;;;13.05;9.25;;;7.10;67.60;9.00;99897.00;;;;5031844;28;20212;-76
2023/12/05 07:47:55;;;;;;;11.30;8.75;;;7.10;67.60;9.00;99900.00;;;;5030727;28;20594;-75
2023/12/05 07:50:22;;;;;;;12.23;8.82;;;7.10;67.70;9.00;99911.00;;;;5030343;28;20297;-76
2023/12/05 07:52:52;;;;;;;12.43;8.63;;;7.20;67.70;9.00;99907.00;;;;5028676;28;20203;-78
2023/12/05 07:55:19;;;;;;;10.43;7.85;;;7.20;67.70;9.00;99913.00;;;;5031487;28;20291;-78
2023/12/05 07:57:48;;;;;;;11.77;8.57;;;7.20;67.70;9.00;99911.00;;;;5031069;28;20215;-75
2023/12/05 08:00:18;;;;;;;11.88;8.90;;;7.20;67.70;9.10;99913.00;;;;5030409;28;20235;-75
2023/12/05 08:02:45;;;;;;;12.30;8.63;;;7.20;67.70;9.10;99924.00;;;;5029009;28;20694;-76
2023/12/05 08:05:13;;;;;;;13.20;8.93;;;7.20;67.70;9.10;99920.00;;;;5028911;28;20219;-75
2023/12/05 08:07:40;;;;;;;12.10;8.73;;;7.20;67.60;9.10;99919.00;;;;5028468;28;20200;-76
2023/12/05 08:10:11;;;;;;;12.32;8.35;;;7.20;67.70;9.10;99915.00;;;;5028605;28;20197;-75
2023/12/05 08:12:38;;;;;;;10.77;7.60;;;7.20;67.60;9.10;99924.00;;;;5030998;28;20644;-75
2023/12/05 08:15:07;;;;;;;12.40;8.13;;;7.30;67.70;9.20;99924.00;;;;5030333;28;20200;-75
2023/12/05 08:17:35;;;;;;;10.88;8.55;;;7.30;67.70;9.20;99930.00;;;;5029524;28;20196;-75
2023/12/05 08:20:02;;;;;;;13.30;8.77;;;7.30;67.60;9.20;99927.00;;;;5027972;28;20682;-75
2023/12/05 08:22:29;;;;;;;11.00;8.27;;;7.30;67.60;9.20;99924.00;;;;5031643;28;20207;-75
2023/12/05 08:24:56;;;;;;;11.93;8.15;;;7.30;67.60;9.20;99932.00;;;;5030312;28;20224;-76
2023/12/05 08:27:24;;;;;;;11.27;7.47;;;7.40;67.60;9.20;99932.00;;;;5030305;28;20207;-75
2023/12/05 08:29:51;;;;;;;11.05;7.78;;;7.30;67.50;9.30;99926.00;;;;5031027;28;20204;-75
2023/12/05 08:32:18;;;;;;;10.70;7.80;;;7.40;67.60;9.30;99935.00;;;;5029702;28;20569;-75
2023/12/05 08:34:45;;;;;;;11.20;8.13;;;7.40;67.60;9.30;99941.00;;;;5030217;28;20204;-77
2023/12/05 08:37:12;;;;;;;10.10;7.38;;;7.40;67.60;9.30;99941.00;;;;5023442;28;20572;-76
2023/12/05 08:39:39;;;;;;;9.85;7.20;;;7.40;67.50;9.30;99948.00;;;;5028935;28;20207;-75
2023/12/05 08:42:06;;;;;;;9.27;7.03;;;7.40;67.50;9.30;99949.00;;;;5032103;28;20227;-76
2023/12/05 08:44:35;;;;;;;9.15;6.63;;;7.40;67.50;9.30;99938.00;;;;5027321;28;20196;-75
2023/12/05 08:47:02;;;;;;;10.90;7.75;;;7.40;67.40;9.30;99943.00;;;;5032816;28;20287;-76
2023/12/05 08:49:29;;;;;;;9.90;7.28;;;7.40;67.40;9.30;99949.00;;;;5034209;28;20506;-75
2023/12/05 08:51:56;;;;;;;9.20;6.65;;;7.40;67.40;9.30;99950.00;;;;5034993;28;20194;-76
2023/12/05 08:54:23;;;;;;;8.25;6.25;;;7.40;67.50;9.30;99951.00;;;;5033293;28;20194;-78
2023/12/05 08:56:50;;;;;;;9.90;6.95;;;7.40;67.50;9.30;99946.00;;;;5033564;28;20587;-76
2023/12/05 08:59:17;;;;;;;15.77;11.80;;;7.40;67.30;9.30;99950.00;;;;5030674;28;20493;-75
2023/12/05 09:01:49;;;;;;;11.55;8.88;;;7.40;67.70;9.40;99954.00;;;;5040630;28;20228;-75
2023/12/05 09:04:16;;;;;;;12.13;8.00;;;7.40;67.80;9.40;99953.00;;;;5024587;28;20576;-76
2023/12/05 09:06:44;;;;;;;10.93;7.82;;;7.40;67.70;9.40;99955.00;;;;5034077;28;20192;-76
2023/12/05 09:09:11;;;;;;;10.50;7.72;;;7.50;67.60;9.40;99951.00;;;;5033549;28;20196;-75
2023/12/05 09:11:38;;;;;;;10.27;7.38;;;7.50;67.40;9.40;99968.00;;;;5029316;28;20197;-75
2023/12/05 09:14:06;;;;;;;13.05;7.88;;;7.50;67.40;9.40;99968.00;;;;5034411;28;20200;-76
2023/12/05 09:16:33;;;;;;;9.63;7.38;;;7.50;67.30;9.40;99967.00;;;;5029656;28;20216;-75
2023/12/05 09:19:02;;;;;;;11.13;7.95;;;7.50;67.30;9.40;99971.00;;;;5033365;28;20220;-76
2023/12/05 09:21:29;;;;;;;9.30;6.82;;;7.50;67.40;9.50;99982.00;;;;5034193;28;20216;-76
2023/12/05 09:23:56;;;;;;;10.88;7.68;;;7.50;67.40;9.50;99981.00;;;;5033959;28;20223;-75
2023/12/05 09:26:23;;;;;;;11.57;7.35;;;7.50;67.40;9.50;99985.00;;;;5033262;28;20202;-75
2023/12/05 09:28:50;;;;;;;10.23;7.82;;;7.50;67.40;9.50;99989.00;;;;5034246;28;20557;-76
2023/12/05 09:31:17;;;;;;;12.65;8.45;;;7.60;67.50;9.50;99988.00;;;;5031509;28;20207;-75
2023/12/05 09:33:49;;;;;;;11.23;7.57;;;7.60;67.60;9.50;99997.00;;;;5032992;28;20211;-76
2023/12/05 09:36:18;;;;;;;11.15;8.18;;;7.60;67.50;9.50;99993.00;;;;5032813;28;20239;-76
2023/12/05 09:38:45;;;;;;;10.60;7.18;;;7.60;67.40;9.60;99998.00;;;;5033189;28;20197;-76
2023/12/05 09:41:15;;;;;;;10.32;7.50;;;7.60;67.30;9.50;100004.00;;;;5032849;28;20800;-76
2023/12/05 09:43:45;;;;;;;12.63;7.70;;;7.60;67.20;9.60;100004.00;;;;5033943;28;20197;-76
2023/12/05 09:46:16;;;;;;;9.52;7.60;;;7.70;67.30;9.60;100016.00;;;;5033741;28;20195;-76
2023/12/05 09:48:48;;;;;;;10.55;7.80;;;7.60;67.30;9.60;100015.00;;;;5032501;28;20196;-76
2023/12/05 09:51:18;;;;;;;10.57;7.78;;;7.70;67.30;9.60;100019.00;;;;5030161;28;20201;-75
2023/12/05 09:53:46;;;;;;;12.23;7.72;;;7.70;67.30;9.60;100008.00;;;;5030689;28;20200;-76
2023/12/05 09:56:14;;;;;;;10.50;7.65;;;7.70;67.20;9.60;100016.00;;;;5033855;28;20212;-76
2023/12/05 09:58:45;;;;;;;14.98;8.80;;;7.70;67.20;9.60;100018.00;;;;5031944;28;20580;-76
2023/12/05 10:01:17;;;;;;;11.85;8.57;;;7.70;67.20;9.60;100025.00;;;;5031282;28;20717;-76
2023/12/05 10:03:45;;;;;;;12.60;8.57;;;7.70;67.20;9.70;100020.00;;;;5033413;28;20553;-76
2023/12/05 10:06:22;;;;;;;9.73;7.30;;;7.70;67.20;9.70;100027.00;;;;5033306;28;20193;-76
2023/12/05 10:08:52;;;;;;;12.07;8.30;;;7.70;67.20;9.70;100027.00;;;;5030468;28;20199;-76
2023/12/05 10:11:22;;;;;;;13.15;8.82;;;7.70;67.20;9.80;100037.00;;;;5032692;28;20196;-76
2023/12/05 10:13:50;;;;;;;12.48;8.75;;;7.70;67.30;9.80;100035.00;;;;5031735;28;20208;-75
2023/12/05 10:16:18;;;;;;;11.80;8.65;;;7.80;67.40;9.80;100031.00;;;;5032542;28;20208;-76
2023/12/05 10:18:47;;;;;;;12.40;9.23;;;7.80;67.30;9.80;100041.00;;;;5032539;28;20662;-76
2023/12/05 10:21:14;;;;;;;11.38;8.27;;;7.80;67.10;9.80;100046.00;;;;5027750;28;20307;-76
2023/12/05 10:23:43;;;;;;;14.82;9.35;;;7.80;67.00;9.80;100049.00;;;;5028862;28;20693;-76
2023/12/05 10:26:10;;;;;;;13.52;9.20;;;7.80;67.00;9.80;100049.00;;;;5031485;28;20272;-76
2023/12/05 10:28:51;;;;;;;12.55;9.35;;;7.80;67.00;9.70;100053.00;;;;5032547;28;20199;-76
2023/12/05 10:31:19;;;;;;;14.00;9.35;;;7.80;67.00;9.80;100052.00;;;;5027574;28;20199;-75
2023/12/05 10:33:48;;;;;;;12.15;9.20;;;7.80;66.90;9.80;100060.00;;;;5031145;28;20208;-75
2023/12/05 10:36:15;;;;;;;13.18;9.10;;;7.80;66.80;9.80;100056.00;;;;5030943;28;20196;-76
2023/12/05 10:38:47;;;;;;;13.73;9.43;;;7.80;66.90;9.80;100060.00;;;;5028858;28;20207;-76
2023/12/05 10:41:23;;;;;;;15.52;9.93;;;7.80;66.90;9.70;100065.00;;;;5031410;28;20248;-76
2023/12/05 10:43:51;;;;;;;14.18;9.98;;;7.80;66.80;9.80;100074.00;;;;5033550;28;20574;-77
2023/12/05 10:46:19;;;;;;;13.85;9.50;;;7.80;66.80;9.80;100067.00;;;;5030802;28;20207;-76
2023/12/05 10:48:46;;;;;;;14.15;10.02;;;7.80;66.80;9.80;100070.00;;;;5031781;28;20684;-76
2023/12/05 10:51:14;;;;;;;12.73;9.07;;;7.80;66.80;9.80;100070.00;;;;5030776;28;20295;-76
2023/12/05 10:53:41;;;;;;;13.80;9.88;;;7.80;66.90;9.80;100083.00;;;;5030799;28;20291;-76
2023/12/05 10:56:15;;;;;;;15.38;11.02;;;7.80;66.80;9.70;100089.00;;;;5030879;28;20273;-76
2023/12/05 10:58:43;;;;;;;16.15;9.57;;;7.80;66.90;9.80;100086.00;;;;5025987;28;20196;-76
2023/12/05 11:01:12;;;;;;;12.23;9.13;;;7.80;66.90;9.80;100089.00;;;;5031116;28;20612;-76
2023/12/05 11:03:41;;;;;;;13.20;9.00;;;7.80;66.90;9.80;100091.00;;;;5024582;28;20292;-76
2023/12/05 11:06:09;;;;;;;13.48;10.13;;;7.80;66.80;9.80;100094.00;;;;5031372;28;20192;-76